Time;durP1;ratioP1;P1;durP2;ratioP2;P2;SDS_P1;SDS_P2;PMS_P1;PMS_P2;Temp;Humidity;BMP_temperature;BMP_pressure;BME280_temperature;BME280_humidity;BME280_pressure;Samples;Min_cycle;Max_cycle;Signal;HPM_P1;HPM_P2
2023/04/23 00:05:33;;;;;;;2.97;1.40;;;;;;;;;;20833875;28;20050;-62
2023/04/23 00:15:35;;;;;;;5.22;2.08;;;;;;;;;;20832414;28;20057;-63
2023/04/23 00:25:36;;;;;;;7.32;1.55;;;;;;;;;;20833954;28;20053;-63
2023/04/23 00:35:38;;;;;;;3.35;1.60;;;;;;;;;;20832408;28;20045;-62
2023/04/23 00:45:40;;;;;;;7.45;1.63;;;;;;;;;;20831881;28;20457;-62
2023/04/23 00:55:42;;;;;;;4.65;1.73;;;;;;;;;;20830166;28;20042;-64
2023/04/23 01:05:44;;;;;;;4.40;1.60;;;;;;;;;;20830956;28;20084;-63
2023/04/23 01:15:45;;;;;;;5.07;1.48;;;;;;;;;;20830502;28;20045;-62
2023/04/23 01:25:48;;;;;;;4.60;1.55;;;;;;;;;;20838399;28;20137;-62
2023/04/23 01:35:50;;;;;;;4.88;1.70;;;;;;;;;;20845372;28;20092;-62
2023/04/23 01:45:51;;;;;;;5.15;1.48;;;;;;;;;;20843381;28;20049;-62
2023/04/23 01:55:54;;;;;;;4.25;1.27;;;;;;;;;;20843981;28;20049;-62
2023/04/23 02:05:57;;;;;;;2.28;1.50;;;;;;;;;;20843444;28;20050;-63
2023/04/23 02:15:59;;;;;;;6.47;1.90;;;;;;;;;;20842504;28;20379;-62
2023/04/23 02:26:01;;;;;;;4.30;1.35;;;;;;;;;;20840424;28;20089;-62
2023/04/23 02:36:03;;;;;;;5.80;1.60;;;;;;;;;;20839941;28;20050;-62
2023/04/23 02:46:08;;;;;;;4.15;1.48;;;;;;;;;;20840323;28;20049;-63
2023/04/23 02:56:10;;;;;;;5.18;1.80;;;;;;;;;;20838196;28;20049;-63
2023/04/23 03:06:11;;;;;;;4.80;1.73;;;;;;;;;;20838641;28;20491;-62
2023/04/23 03:16:13;;;;;;;4.97;1.85;;;;;;;;;;20837701;28;20053;-62
2023/04/23 03:26:15;;;;;;;4.63;1.65;;;;;;;;;;20835805;28;20053;-63
2023/04/23 03:36:17;;;;;;;6.63;2.10;;;;;;;;;;20834772;28;20041;-62
2023/04/23 03:46:19;;;;;;;5.35;1.70;;;;;;;;;;20835378;28;20112;-62
2023/04/23 03:56:21;;;;;;;7.03;1.83;;;;;;;;;;20834446;28;20403;-63
2023/04/23 04:06:22;;;;;;;3.92;1.70;;;;;;;;;;20833959;28;20509;-63
2023/04/23 04:16:24;;;;;;;4.05;1.60;;;;;;;;;;20833371;28;20057;-62
2023/04/23 04:26:26;;;;;;;3.90;1.48;;;;;;;;;;20831490;28;20403;-62
2023/04/23 04:36:28;;;;;;;4.15;2.38;;;;;;;;;;20832225;28;20087;-61
2023/04/23 04:46:30;;;;;;;5.45;2.30;;;;;;;;;;20831713;28;20046;-62
2023/04/23 04:56:33;;;;;;;8.57;2.08;;;;;;;;;;20833142;28;20045;-62
2023/04/23 05:06:35;;;;;;;4.93;2.25;;;;;;;;;;20847257;28;20048;-62
2023/04/23 05:16:37;;;;;;;6.63;2.35;;;;;;;;;;20847134;28;20045;-62
2023/04/23 05:26:38;;;;;;;8.70;2.45;;;;;;;;;;20846432;28;20396;-63
2023/04/23 05:36:40;;;;;;;6.03;2.28;;;;;;;;;;20844458;28;20045;-63
2023/04/23 05:46:42;;;;;;;3.78;2.47;;;;;;;;;;20844322;28;20053;-63
2023/04/23 05:56:44;;;;;;;9.40;2.80;;;;;;;;;;20842219;28;20042;-62
2023/04/23 06:06:46;;;;;;;7.93;2.28;;;;;;;;;;20841557;28;20045;-62
2023/04/23 06:16:48;;;;;;;5.68;1.88;;;;;;;;;;20842007;28;20072;-62
2023/04/23 06:26:50;;;;;;;21.15;9.52;;;;;;;;;;20839981;28;20058;-62
2023/04/23 06:36:51;;;;;;;7.35;2.47;;;;;;;;;;20840020;28;20059;-62
2023/04/23 06:46:53;;;;;;;4.40;2.03;;;;;;;;;;20838429;28;20045;-62
2023/04/23 06:56:56;;;;;;;6.70;2.70;;;;;;;;;;20837176;28;20068;-63
2023/04/23 07:06:59;;;;;;;5.25;1.85;;;;;;;;;;20837593;28;20049;-62
2023/04/23 07:17:00;;;;;;;6.05;2.65;;;;;;;;;;20835132;28;20053;-63
2023/04/23 07:27:02;;;;;;;5.88;2.92;;;;;;;;;;20834403;28;20060;-62
2023/04/23 07:37:04;;;;;;;7.10;3.10;;;;;;;;;;20835415;28;20049;-63
2023/04/23 07:47:06;;;;;;;7.97;3.28;;;;;;;;;;20832871;28;20092;-63
2023/04/23 07:57:10;;;;;;;6.03;3.00;;;;;;;;;;20833119;28;20049;-62
2023/04/23 08:07:12;;;;;;;8.60;2.95;;;;;;;;;;20833225;28;20063;-62
2023/04/23 08:17:14;;;;;;;5.97;2.20;;;;;;;;;;20832130;28;20422;-61
2023/04/23 08:27:16;;;;;;;4.63;1.80;;;;;;;;;;20831609;28;20049;-62
2023/04/23 08:37:17;;;;;;;5.95;1.98;;;;;;;;;;20830168;28;20081;-62
2023/04/23 08:47:23;;;;;;;10.38;3.67;;;;;;;;;;20829942;28;20053;-62
2023/04/23 08:57:25;;;;;;;2.97;1.17;;;;;;;;;;20828925;28;20513;-62
2023/04/23 09:07:27;;;;;;;3.33;1.00;;;;;;;;;;20826925;28;20508;-64
2023/04/23 09:17:29;;;;;;;2.90;1.15;;;;;;;;;;20823202;28;20108;-66
2023/04/23 09:27:31;;;;;;;1.75;0.80;;;;;;;;;;20828501;28;20045;-60
2023/04/23 09:37:33;;;;;;;2.97;0.90;;;;;;;;;;20827602;28;20402;-62
2023/04/23 09:47:38;;;;;;;4.95;1.00;;;;;;;;;;20838648;28;20183;-62
2023/04/23 09:57:43;;;;;;;6.07;1.05;;;;;;;;;;20839897;28;20052;-61
2023/04/23 10:07:47;;;;;;;3.50;1.10;;;;;;;;;;20841164;28;20056;-61
2023/04/23 10:17:51;;;;;;;3.88;0.95;;;;;;;;;;20839805;28;20119;-62
2023/04/23 10:27:53;;;;;;;2.35;0.93;;;;;;;;;;20841102;28;20048;-61
2023/04/23 10:37:55;;;;;;;2.45;0.85;;;;;;;;;;20838907;28;20053;-61
2023/04/23 10:47:58;;;;;;;5.18;2.05;;;;;;;;;;20837877;28;20057;-60
2023/04/23 10:58:07;;;;;;;3.20;1.13;;;;;;;;;;20836955;28;20045;-62
2023/04/23 11:08:08;;;;;;;2.13;0.68;;;;;;;;;;20837744;28;20106;-62
2023/04/23 11:18:11;;;;;;;2.00;0.90;;;;;;;;;;20836548;28;20053;-61
2023/04/23 11:28:13;;;;;;;7.68;2.97;;;;;;;;;;20835923;28;20053;-61
2023/04/23 11:38:15;;;;;;;3.97;1.75;;;;;;;;;;20834988;28;20501;-62
2023/04/23 11:48:17;;;;;;;2.35;1.15;;;;;;;;;;20833000;28;20050;-61
2023/04/23 11:58:19;;;;;;;2.22;1.30;;;;;;;;;;20833409;28;20355;-61
2023/04/23 12:08:21;;;;;;;3.88;1.20;;;;;;;;;;20832824;28;20099;-60
2023/04/23 12:18:34;;;;;;;1.92;0.35;;;;;;;;;;20832679;28;20057;-62
2023/04/23 12:28:44;;;;;;;3.33;0.73;;;;;;;;;;20830830;28;20406;-63
2023/04/23 12:38:46;;;;;;;3.28;0.47;;;;;;;;;;20830561;28;20045;-65
2023/04/23 12:48:48;;;;;;;3.17;1.65;;;;;;;;;;20829867;28;20419;-63
2023/04/23 12:58:50;;;;;;;2.22;1.05;;;;;;;;;;20829115;28;20048;-66
2023/04/23 13:08:54;;;;;;;4.00;2.35;;;;;;;;;;20829267;28;20111;-65
2023/04/23 13:18:55;;;;;;;1.98;0.47;;;;;;;;;;20834540;28;20053;-68
2023/04/23 13:28:58;;;;;;;1.95;0.80;;;;;;;;;;20845091;28;20053;-68
2023/04/23 13:38:59;;;;;;;1.98;0.57;;;;;;;;;;20845776;28;20056;-66
2023/04/23 13:49:01;;;;;;;2.47;0.60;;;;;;;;;;20845124;28;20052;-66
2023/04/23 13:59:03;;;;;;;0.93;0.65;;;;;;;;;;20844217;28;20045;-66
2023/04/23 14:09:05;;;;;;;1.48;0.25;;;;;;;;;;20843483;28;20056;-66
2023/04/23 14:19:06;;;;;;;1.08;0.40;;;;;;;;;;20842302;28;20087;-67
2023/04/23 14:29:12;;;;;;;1.05;0.50;;;;;;;;;;20841020;28;20049;-67
2023/04/23 14:39:14;;;;;;;1.48;0.43;;;;;;;;;;20841084;28;20205;-66
2023/04/23 14:49:17;;;;;;;4.18;2.60;;;;;;;;;;20840219;28;20495;-66
2023/04/23 14:59:18;;;;;;;3.15;1.10;;;;;;;;;;20839418;28;20045;-67
2023/04/23 15:09:20;;;;;;;1.67;0.52;;;;;;;;;;20837250;28;20056;-67
2023/04/23 15:19:22;;;;;;;2.42;0.60;;;;;;;;;;20838078;28;20646;-66
2023/04/23 15:29:24;;;;;;;5.70;3.35;;;;;;;;;;20836188;28;20046;-67
2023/04/23 15:39:25;;;;;;;0.73;0.20;;;;;;;;;;20826298;28;20525;-69
2023/04/23 15:49:27;;;;;;;1.52;0.47;;;;;;;;;;20835800;28;20049;-68
2023/04/23 15:59:29;;;;;;;0.82;0.40;;;;;;;;;;20833831;28;20042;-67
2023/04/23 16:09:31;;;;;;;4.13;2.15;;;;;;;;;;20836601;28;20132;-68
2023/04/23 16:19:33;;;;;;;1.23;0.50;;;;;;;;;;20834745;28;20502;-69
2023/04/23 16:29:35;;;;;;;5.43;2.17;;;;;;;;;;20832915;28;20049;-69
2023/04/23 16:39:36;;;;;;;2.72;1.60;;;;;;;;;;20832140;28;20053;-67
2023/04/23 16:49:38;;;;;;;3.25;1.40;;;;;;;;;;20831262;28;20402;-67
2023/04/23 16:59:40;;;;;;;0.90;0.60;;;;;;;;;;20830538;28;20057;-67
2023/04/23 17:09:42;;;;;;;1.33;0.68;;;;;;;;;;20829978;28;20049;-68
2023/04/23 17:19:44;;;;;;;1.95;0.45;;;;;;;;;;20830598;28;20115;-69
2023/04/23 17:29:46;;;;;;;2.45;0.52;;;;;;;;;;20830385;28;20494;-67
2023/04/23 17:39:48;;;;;;;5.40;2.28;;;;;;;;;;20830039;28;20053;-69
2023/04/23 17:49:49;;;;;;;2.97;0.73;;;;;;;;;;20828565;28;20490;-67
2023/04/23 17:59:51;;;;;;;1.65;0.57;;;;;;;;;;20828146;28;20490;-67
2023/04/23 18:09:53;;;;;;;3.13;0.55;;;;;;;;;;20838170;28;20068;-67
2023/04/23 18:19:56;;;;;;;0.93;0.30;;;;;;;;;;20840816;28;20533;-67
2023/04/23 18:29:59;;;;;;;2.70;0.77;;;;;;;;;;20841051;28;20046;-66
2023/04/23 18:40:01;;;;;;;0.82;0.22;;;;;;;;;;20840047;28;20107;-66
2023/04/23 18:50:07;;;;;;;2.58;0.50;;;;;;;;;;20839658;28;20499;-67
2023/04/23 19:00:09;;;;;;;2.42;0.28;;;;;;;;;;20838567;28;20053;-67
2023/04/23 19:10:12;;;;;;;3.42;0.65;;;;;;;;;;20836780;28;20053;-68
2023/04/23 19:20:14;;;;;;;0.88;0.30;;;;;;;;;;20834915;28;20053;-66
2023/04/23 19:30:16;;;;;;;4.05;0.65;;;;;;;;;;20837030;28;20057;-67
2023/04/23 19:40:18;;;;;;;0.63;0.40;;;;;;;;;;20835798;28;20049;-67
2023/04/23 19:50:20;;;;;;;2.65;0.50;;;;;;;;;;20834605;28;20132;-67
2023/04/23 20:00:23;;;;;;;1.55;0.50;;;;;;;;;;20833932;28;20103;-67
2023/04/23 20:10:29;;;;;;;2.67;0.60;;;;;;;;;;20833253;28;20045;-65
2023/04/23 20:20:32;;;;;;;1.13;0.43;;;;;;;;;;20831762;28;20068;-67
2023/04/23 20:30:35;;;;;;;1.83;0.70;;;;;;;;;;20830617;28;20100;-67
2023/04/23 20:40:38;;;;;;;2.50;0.77;;;;;;;;;;20831896;28;20511;-66
2023/04/23 20:50:40;;;;;;;3.15;1.00;;;;;;;;;;20830900;28;20092;-66
2023/04/23 21:00:42;;;;;;;0.80;0.35;;;;;;;;;;20828948;28;20044;-66
2023/04/23 21:10:44;;;;;;;1.30;0.60;;;;;;;;;;20829637;28;20053;-66
2023/04/23 21:20:45;;;;;;;1.52;0.50;;;;;;;;;;20827364;28;20054;-66
2023/04/23 21:30:49;;;;;;;1.63;0.35;;;;;;;;;;20828944;28;20049;-66
2023/04/23 21:40:51;;;;;;;1.42;0.43;;;;;;;;;;20835153;28;20091;-65
2023/04/23 21:50:54;;;;;;;3.28;0.70;;;;;;;;;;20842701;28;20054;-68
2023/04/23 22:00:55;;;;;;;1.45;0.70;;;;;;;;;;20842699;28;20045;-67
2023/04/23 22:10:57;;;;;;;1.20;0.32;;;;;;;;;;20840883;28;20049;-67
2023/04/23 22:20:59;;;;;;;1.48;0.40;;;;;;;;;;20840441;28;20062;-66
2023/04/23 22:31:01;;;;;;;1.27;0.43;;;;;;;;;;20840568;28;20107;-65
2023/04/23 22:41:02;;;;;;;2.88;0.50;;;;;;;;;;20838632;28;20142;-66
2023/04/23 22:51:05;;;;;;;1.88;0.55;;;;;;;;;;20837103;28;20057;-66
2023/04/23 23:01:07;;;;;;;1.42;0.65;;;;;;;;;;20838678;28;20045;-67
2023/04/23 23:11:09;;;;;;;2.15;0.70;;;;;;;;;;20836844;28;20050;-66
2023/04/23 23:21:11;;;;;;;2.95;0.50;;;;;;;;;;20836625;28;20066;-66
2023/04/23 23:31:13;;;;;;;2.03;0.70;;;;;;;;;;20836305;28;20045;-66
2023/04/23 23:41:15;;;;;;;2.10;0.65;;;;;;;;;;20835198;28;20045;-66
2023/04/23 23:51:17;;;;;;;2.55;0.70;;;;;;;;;;20834088;28;20056;-66
